createdAt,value
2018-09-29T00:01:26.690Z,6.06
2018-09-29T00:03:55.703Z,6.04
2018-09-29T00:06:23.269Z,6.00
2018-09-29T00:08:51.879Z,5.96
2018-09-29T00:11:19.738Z,5.92
2018-09-29T00:13:47.279Z,5.86
2018-09-29T00:16:18.548Z,5.81
2018-09-29T00:18:46.767Z,5.75
2018-09-29T00:21:14.410Z,5.69
2018-09-29T00:23:41.989Z,5.65
2018-09-29T00:26:10.011Z,5.63
2018-09-29T00:28:37.654Z,5.61
2018-09-29T00:31:05.202Z,5.61
2018-09-29T00:33:32.767Z,5.58
2018-09-29T00:36:01.657Z,5.56
2018-09-29T00:38:30.101Z,5.53
2018-09-29T00:40:57.918Z,5.49
2018-09-29T00:43:25.445Z,5.46
2018-09-29T00:45:53.379Z,5.41
2018-09-29T00:48:20.960Z,5.37
2018-09-29T00:50:48.502Z,5.34
2018-09-29T00:53:16.033Z,5.32
2018-09-29T00:55:43.999Z,5.30
2018-09-29T00:58:11.555Z,5.28
2018-09-29T01:00:39.665Z,5.27
2018-09-29T01:03:08.691Z,5.25
2018-09-29T01:05:37.052Z,5.24
2018-09-29T01:08:04.752Z,5.20
2018-09-29T01:10:32.684Z,5.17
2018-09-29T01:13:00.351Z,5.12
2018-09-29T01:15:27.948Z,5.09
2018-09-29T01:17:55.479Z,5.05
2018-09-29T01:20:23.515Z,5.04
2018-09-29T01:22:51.743Z,5.01
2018-09-29T01:25:19.345Z,4.98
2018-09-29T01:27:48.338Z,4.96
2018-09-29T01:30:18.472Z,4.93
2018-09-29T01:32:46.010Z,4.90
2018-09-29T01:35:13.573Z,4.86
2018-09-29T01:37:41.119Z,4.84
2018-09-29T01:40:08.670Z,4.81
2018-09-29T01:42:36.245Z,4.81
2018-09-29T01:45:03.778Z,4.78
2018-09-29T01:47:31.657Z,4.74
2018-09-29T01:49:59.214Z,4.72
2018-09-29T01:52:26.761Z,4.71
2018-09-29T01:54:54.683Z,4.69
2018-09-29T01:57:22.758Z,4.68
2018-09-29T01:59:50.349Z,4.67
2018-09-29T02:02:21.602Z,4.65
2018-09-29T02:04:49.805Z,4.63
2018-09-29T02:07:17.334Z,4.61
2018-09-29T02:09:44.878Z,4.60
2018-09-29T02:12:12.456Z,4.57
2018-09-29T02:14:40.486Z,4.57
2018-09-29T02:17:08.693Z,4.58
2018-09-29T02:19:37.419Z,4.56
2018-09-29T02:22:04.966Z,4.55
2018-09-29T02:24:33.017Z,4.50
2018-09-29T02:27:00.839Z,4.47
2018-09-29T02:29:28.417Z,4.43
2018-09-29T02:31:55.962Z,4.39
2018-09-29T02:34:24.024Z,4.36
2018-09-29T02:36:51.608Z,4.30
2018-09-29T02:39:19.175Z,4.28
2018-09-29T02:41:47.402Z,4.24
2018-09-29T02:44:15.265Z,4.17
2018-09-29T02:46:42.790Z,4.13
2018-09-29T02:49:10.398Z,4.11
2018-09-29T02:51:38.873Z,4.10
2018-09-29T02:54:08.871Z,4.09
2018-09-29T02:56:36.568Z,4.05
2018-09-29T02:59:04.157Z,4.04
2018-09-29T03:01:31.728Z,4.01
2018-09-29T03:03:59.604Z,4.00
2018-09-29T03:06:27.231Z,4.00
2018-09-29T03:08:54.827Z,3.97
2018-09-29T03:11:22.383Z,3.94
2018-09-29T03:13:51.319Z,3.91
2018-09-29T03:16:18.862Z,3.90
2018-09-29T03:18:46.461Z,3.88
2018-09-29T03:21:14.019Z,3.87
2018-09-29T03:23:41.968Z,3.86
2018-09-29T03:26:09.559Z,3.84
2018-09-29T03:28:37.996Z,3.83
2018-09-29T03:31:05.564Z,3.81
2018-09-29T03:33:34.134Z,3.79
2018-09-29T03:36:01.724Z,3.78
2018-09-29T03:38:29.285Z,3.75
2018-09-29T03:40:57.186Z,3.74
2018-09-29T03:43:24.750Z,3.74
2018-09-29T03:45:52.639Z,3.75
2018-09-29T03:48:20.587Z,3.73
2018-09-29T03:50:48.167Z,3.70
2018-09-29T03:53:15.753Z,3.70
2018-09-29T03:55:43.386Z,3.70
2018-09-29T03:58:11.247Z,3.71
2018-09-29T04:00:38.785Z,3.72
2018-09-29T04:03:06.344Z,3.73
2018-09-29T04:05:33.889Z,3.73
2018-09-29T04:08:01.997Z,3.73
2018-09-29T04:10:29.546Z,3.75
2018-09-29T04:12:57.166Z,3.77
2018-09-29T04:15:24.743Z,3.77
2018-09-29T04:17:52.820Z,3.74
2018-09-29T04:20:21.785Z,3.73
2018-09-29T04:22:51.874Z,3.71
2018-09-29T04:25:19.408Z,3.70
2018-09-29T04:27:47.321Z,3.68
2018-09-29T04:30:14.914Z,3.68
2018-09-29T04:32:42.476Z,3.65
2018-09-29T04:35:11.487Z,3.59
2018-09-29T04:37:39.614Z,3.53
2018-09-29T04:40:08.336Z,3.48
2018-09-29T04:42:35.895Z,3.43
2018-09-29T04:45:03.817Z,3.38
2018-09-29T04:47:31.416Z,3.35
2018-09-29T04:49:58.947Z,3.31
2018-09-29T04:52:26.519Z,3.30
2018-09-29T04:54:54.426Z,3.29
2018-09-29T04:57:21.991Z,3.27
2018-09-29T04:59:49.556Z,3.25
2018-09-29T05:02:17.399Z,3.24
2018-09-29T05:04:44.996Z,3.23
2018-09-29T05:07:12.651Z,3.19
2018-09-29T05:09:40.598Z,3.18
2018-09-29T05:12:08.235Z,3.18
2018-09-29T05:14:35.804Z,3.16
2018-09-29T05:17:03.385Z,3.16
2018-09-29T05:19:31.355Z,3.16
2018-09-29T05:21:59.109Z,3.17
2018-09-29T05:24:26.675Z,3.16
2018-09-29T05:26:54.298Z,3.20
2018-09-29T05:29:22.351Z,3.21
2018-09-29T05:31:51.000Z,3.19
2018-09-29T05:34:18.803Z,3.18
2018-09-29T05:36:46.338Z,3.15
2018-09-29T05:39:14.178Z,3.13
2018-09-29T05:41:42.744Z,3.09
2018-09-29T05:44:10.331Z,3.09
2018-09-29T05:46:38.471Z,3.09
2018-09-29T05:49:06.140Z,3.10
2018-09-29T05:51:33.842Z,3.10
2018-09-29T05:54:02.965Z,3.12
2018-09-29T05:56:30.533Z,3.15
2018-09-29T05:58:59.314Z,3.23
2018-09-29T06:01:29.358Z,3.28
2018-09-29T06:03:56.928Z,3.36
2018-09-29T06:06:24.479Z,3.44
2018-09-29T06:08:53.228Z,3.49
2018-09-29T06:11:20.854Z,3.55
2018-09-29T06:13:48.458Z,3.62
2018-09-29T06:16:17.530Z,3.68
2018-09-29T06:18:46.049Z,3.73
2018-09-29T06:21:13.614Z,3.80
2018-09-29T06:23:42.563Z,3.84
2018-09-29T06:26:11.226Z,3.85
2018-09-29T06:28:39.375Z,3.84
2018-09-29T06:31:09.853Z,3.83
2018-09-29T06:33:37.431Z,3.85
2018-09-29T06:36:06.639Z,3.87
2018-09-29T06:38:35.504Z,3.93
2018-09-29T06:41:03.347Z,3.98
2018-09-29T06:43:30.945Z,4.05
2018-09-29T06:45:58.920Z,4.14
2018-09-29T06:48:26.491Z,4.22
2018-09-29T06:50:54.174Z,4.30
2018-09-29T06:53:25.358Z,4.40
2018-09-29T06:55:53.395Z,4.53
2018-09-29T06:58:21.963Z,4.61
2018-09-29T07:00:50.568Z,4.69
2018-09-29T07:03:18.301Z,4.78
2018-09-29T07:05:45.842Z,4.89
2018-09-29T07:08:13.767Z,5.03
2018-09-29T07:10:41.348Z,5.17
2018-09-29T07:13:08.893Z,5.30
2018-09-29T07:15:36.730Z,5.44
2018-09-29T07:18:04.403Z,5.57
2018-09-29T07:20:33.447Z,5.72
2018-09-29T07:23:01.628Z,5.88
2018-09-29T07:25:29.265Z,6.06
2018-09-29T07:27:56.828Z,6.21
2018-09-29T07:30:24.754Z,6.39
2018-09-29T07:32:52.350Z,6.56
2018-09-29T07:35:19.922Z,6.68
2018-09-29T07:37:48.185Z,6.80
2018-09-29T07:40:15.745Z,6.87
2018-09-29T07:42:43.317Z,6.96
2018-09-29T07:45:12.159Z,7.10
2018-09-29T07:47:39.700Z,7.20
2018-09-29T07:50:07.980Z,7.34
2018-09-29T07:52:36.815Z,7.48
2018-09-29T07:55:04.401Z,7.59
2018-09-29T07:57:32.013Z,7.72
2018-09-29T08:00:00.849Z,7.83
2018-09-29T08:02:29.363Z,7.94
2018-09-29T08:04:57.741Z,8.01
2018-09-29T08:07:25.793Z,8.17
2018-09-29T08:09:54.007Z,8.32
2018-09-29T08:12:26.373Z,8.48
2018-09-29T08:14:54.371Z,8.64
2018-09-29T08:17:24.407Z,8.79
2018-09-29T08:19:52.682Z,8.96
2018-09-29T08:22:21.585Z,9.15
2018-09-29T08:24:50.489Z,9.34
2018-09-29T08:27:19.030Z,9.50
2018-09-29T08:29:47.250Z,9.66
2018-09-29T08:32:14.965Z,9.85
2018-09-29T08:34:42.567Z,10.03
2018-09-29T08:37:11.259Z,10.18
2018-09-29T08:39:38.859Z,10.27
2018-09-29T08:42:07.323Z,10.40
2018-09-29T08:44:35.278Z,10.53
2018-09-29T08:47:04.599Z,10.65
2018-09-29T08:49:35.728Z,10.79
2018-09-29T08:52:03.615Z,10.91
2018-09-29T08:54:32.142Z,11.05
2018-09-29T08:57:00.388Z,11.18
2018-09-29T08:59:28.259Z,11.32
2018-09-29T09:01:55.833Z,11.42
2018-09-29T09:04:28.099Z,11.53
2018-09-29T09:06:56.478Z,11.65
2018-09-29T09:11:58.675Z,12.24
2018-09-29T09:14:28.404Z,12.65
2018-09-29T09:16:56.995Z,13.06
2018-09-29T09:19:24.586Z,13.37
2018-09-29T09:21:52.521Z,13.56
2018-09-29T09:24:20.528Z,13.69
2018-09-29T09:26:48.216Z,13.77
2018-09-29T09:29:16.171Z,13.81
2018-09-29T09:31:44.315Z,13.95
2018-09-29T09:34:11.883Z,14.25
2018-09-29T09:36:39.790Z,14.78
2018-09-29T09:39:07.353Z,15.56
2018-09-29T09:41:34.882Z,16.45
2018-09-29T09:44:03.769Z,17.28
2018-09-29T09:46:31.340Z,18.07
2018-09-29T09:48:58.884Z,18.85
2018-09-29T09:51:28.533Z,19.53
2018-09-29T09:53:57.552Z,20.05
2018-09-29T09:56:25.977Z,20.65
2018-09-29T09:58:54.643Z,21.29
2018-09-29T10:01:27.393Z,21.86
2018-09-29T10:03:55.629Z,22.39
2018-09-29T10:06:24.390Z,22.86
2018-09-29T10:08:51.983Z,23.12
2018-09-29T10:11:19.576Z,23.58
2018-09-29T10:13:47.543Z,24.01
2018-09-29T10:16:15.090Z,24.42
2018-09-29T10:18:42.761Z,24.80
2018-09-29T10:21:10.767Z,25.04
2018-09-29T10:23:38.370Z,25.29
2018-09-29T10:26:05.987Z,25.53
2018-09-29T10:28:34.047Z,25.66
2018-09-29T10:31:01.669Z,25.86
2018-09-29T10:33:29.352Z,26.08
2018-09-29T10:35:57.346Z,26.23
2018-09-29T10:38:26.284Z,26.51
2018-09-29T10:40:54.461Z,26.86
2018-09-29T10:43:24.192Z,27.16
2018-09-29T10:45:51.820Z,27.30
2018-09-29T10:48:19.390Z,27.33
2018-09-29T10:50:47.394Z,27.37
2018-09-29T10:53:15.016Z,27.42
2018-09-29T10:55:42.802Z,27.47
2018-09-29T10:58:10.774Z,27.50
2018-09-29T11:00:38.974Z,27.57
2018-09-29T11:03:06.524Z,27.62
2018-09-29T11:05:34.649Z,27.50
2018-09-29T11:08:02.494Z,27.23
2018-09-29T11:10:30.107Z,27.14
2018-09-29T11:12:57.675Z,27.29
2018-09-29T11:15:25.346Z,27.57
2018-09-29T11:17:54.170Z,27.88
2018-09-29T11:20:23.650Z,28.24
2018-09-29T11:22:53.601Z,28.49
2018-09-29T11:25:22.515Z,28.67
2018-09-29T11:27:50.223Z,28.87
2018-09-29T11:30:19.098Z,28.99
2018-09-29T11:32:48.450Z,28.97
2018-09-29T11:35:16.029Z,28.63
2018-09-29T11:37:43.612Z,28.55
2018-09-29T11:40:12.221Z,28.70
2018-09-29T11:42:39.822Z,28.93
2018-09-29T11:45:08.269Z,29.07
2018-09-29T11:47:40.133Z,29.17
2018-09-29T11:50:07.866Z,29.11
2018-09-29T11:52:35.462Z,28.80
2018-09-29T11:55:04.543Z,28.25
2018-09-29T11:57:34.546Z,27.60
2018-09-29T12:00:02.171Z,27.21
2018-09-29T12:02:30.803Z,27.18
2018-09-29T12:04:58.376Z,27.38
2018-09-29T12:07:27.475Z,27.67
2018-09-29T12:09:55.289Z,27.61
2018-09-29T12:12:24.673Z,27.65
2018-09-29T12:14:52.284Z,27.89
2018-09-29T12:17:20.119Z,28.33
2018-09-29T12:19:48.733Z,28.53
2018-09-29T12:22:16.352Z,28.69
2018-09-29T12:24:44.368Z,28.76
2018-09-29T12:27:11.925Z,28.92
2018-09-29T12:29:39.550Z,28.65
2018-09-29T12:32:07.529Z,28.13
2018-09-29T12:34:35.167Z,27.63
2018-09-29T12:37:05.795Z,27.10
2018-09-29T12:39:33.847Z,26.25
2018-09-29T12:42:01.457Z,25.21
2018-09-29T12:44:29.135Z,24.28
2018-09-29T12:46:56.974Z,23.51
2018-09-29T12:49:24.597Z,22.78
2018-09-29T12:51:52.227Z,22.11
2018-09-29T12:54:21.193Z,21.49
2018-09-29T12:56:49.357Z,20.94
2018-09-29T12:59:17.326Z,20.47
2018-09-29T13:01:45.336Z,20.11
2018-09-29T13:04:12.900Z,19.82
2018-09-29T13:06:41.358Z,19.58
2018-09-29T13:09:09.301Z,19.33
2018-09-29T13:11:37.035Z,19.05
2018-09-29T13:14:05.475Z,18.79
2018-09-29T13:16:34.054Z,18.59
2018-09-29T13:19:01.667Z,18.47
2018-09-29T13:21:29.626Z,18.35
2018-09-29T13:23:57.664Z,18.21
2018-09-29T13:26:26.320Z,18.07
2018-09-29T13:28:53.915Z,17.95
2018-09-29T13:31:22.354Z,17.84
2018-09-29T13:33:49.919Z,17.78
2018-09-29T13:36:18.337Z,17.73
2018-09-29T13:38:49.926Z,17.68
2018-09-29T13:41:17.537Z,17.63
2018-09-29T13:43:45.312Z,17.62
2018-09-29T13:46:13.231Z,17.61
2018-09-29T13:48:40.834Z,17.57
2018-09-29T13:51:08.496Z,17.54
2018-09-29T13:53:36.399Z,17.53
2018-09-29T13:56:04.527Z,17.51
2018-09-29T13:58:32.326Z,17.50
2018-09-29T14:01:03.418Z,17.49
2018-09-29T14:03:32.137Z,17.48
2018-09-29T14:05:59.934Z,17.47
2018-09-29T14:08:32.488Z,17.44
2018-09-29T14:11:00.812Z,17.40
2018-09-29T14:13:28.450Z,17.43
2018-09-29T14:15:56.924Z,17.46
2018-09-29T14:18:24.563Z,17.48
2018-09-29T14:20:52.531Z,17.46
2018-09-29T14:23:22.669Z,17.43
2018-09-29T14:25:52.035Z,17.43
2018-09-29T14:28:20.674Z,17.46
2018-09-29T14:30:48.235Z,17.46
2018-09-29T14:33:19.668Z,17.47
2018-09-29T14:35:48.229Z,17.45
2018-09-29T14:38:15.806Z,17.46
2018-09-29T14:40:43.415Z,17.45
2018-09-29T14:43:11.661Z,17.47
2018-09-29T14:45:39.225Z,17.49
2018-09-29T14:48:08.031Z,17.51
2018-09-29T14:50:35.826Z,17.52
2018-09-29T14:53:03.593Z,17.55
2018-09-29T14:55:31.666Z,17.59
2018-09-29T14:58:00.666Z,17.66
2018-09-29T15:00:28.225Z,17.74
2018-09-29T15:02:56.061Z,17.87
2018-09-29T15:05:24.341Z,17.97
2018-09-29T15:07:54.621Z,18.02
2018-09-29T15:10:22.546Z,18.03
2018-09-29T15:12:50.089Z,18.03
2018-09-29T15:15:18.328Z,18.04
2018-09-29T15:17:48.242Z,18.11
2018-09-29T15:20:16.694Z,18.24
2018-09-29T15:22:44.310Z,18.35
2018-09-29T15:25:12.182Z,18.56
2018-09-29T15:27:40.309Z,18.85
2018-09-29T15:30:07.864Z,19.14
2018-09-29T15:32:35.826Z,19.28
2018-09-29T15:35:04.417Z,19.41
2018-09-29T15:37:32.514Z,19.50
2018-09-29T15:40:00.552Z,19.44
2018-09-29T15:42:29.175Z,19.29
2018-09-29T15:44:57.425Z,18.95
2018-09-29T15:47:30.015Z,18.55
2018-09-29T15:49:58.255Z,18.09
2018-09-29T15:52:26.450Z,17.72
2018-09-29T15:54:56.477Z,17.38
2018-09-29T15:57:26.347Z,17.09
2018-09-29T15:59:56.811Z,16.82
2018-09-29T16:02:27.663Z,16.62
2018-09-29T16:04:55.307Z,16.43
2018-09-29T16:07:23.674Z,16.26
2018-09-29T16:09:52.496Z,16.10
2018-09-29T16:12:20.669Z,15.95
2018-09-29T16:14:48.662Z,15.82
2018-09-29T16:17:16.693Z,15.72
2018-09-29T16:19:44.241Z,15.59
2018-09-29T16:22:12.391Z,15.50
2018-09-29T16:24:40.261Z,15.40
2018-09-29T16:27:07.873Z,15.30
2018-09-29T16:29:35.723Z,15.19
2018-09-29T16:32:04.574Z,15.09
2018-09-29T16:34:33.398Z,15.00
2018-09-29T16:37:02.322Z,14.89
2018-09-29T16:39:30.355Z,14.79
2018-09-29T16:41:58.648Z,14.67
2018-09-29T16:44:26.941Z,14.57
2018-09-29T16:46:57.378Z,14.45
2018-09-29T16:49:26.672Z,14.34
2018-09-29T16:51:55.837Z,14.23
2018-09-29T16:54:24.813Z,14.10
2018-09-29T16:56:53.981Z,13.97
2018-09-29T16:59:22.542Z,13.84
2018-09-29T17:01:53.272Z,13.72
2018-09-29T17:04:21.470Z,13.57
2018-09-29T17:06:49.068Z,13.45
2018-09-29T17:09:17.871Z,13.31
2018-09-29T17:11:46.087Z,13.20
2018-09-29T17:14:13.655Z,13.08
2018-09-29T17:16:41.598Z,12.97
2018-09-29T17:19:09.192Z,12.89
2018-09-29T17:21:37.369Z,12.80
2018-09-29T17:24:05.489Z,12.71
2018-09-29T17:26:33.077Z,12.63
2018-09-29T17:29:00.683Z,12.56
2018-09-29T17:31:28.727Z,12.48
2018-09-29T17:33:56.319Z,12.38
2018-09-29T17:36:24.610Z,12.29
2018-09-29T17:38:55.309Z,12.21
2018-09-29T17:41:23.674Z,12.13
2018-09-29T17:43:51.259Z,12.05
2018-09-29T17:46:22.178Z,11.98
2018-09-29T17:48:50.747Z,11.89
2018-09-29T17:51:18.522Z,11.81
2018-09-29T17:53:46.393Z,11.75
2018-09-29T17:56:13.995Z,11.68
2018-09-29T17:58:41.584Z,11.62
2018-09-29T18:01:09.583Z,11.54
2018-09-29T18:03:38.145Z,11.44
2018-09-29T18:06:07.100Z,11.36
2018-09-29T18:08:34.997Z,11.30
2018-09-29T18:11:03.169Z,11.22
2018-09-29T18:13:30.754Z,11.13
2018-09-29T18:15:59.797Z,11.02
2018-09-29T18:18:27.398Z,10.94
2018-09-29T18:20:56.682Z,10.87
2018-09-29T18:23:25.762Z,10.79
2018-09-29T18:25:53.375Z,10.77
2018-09-29T18:28:21.652Z,10.74
2018-09-29T18:30:50.511Z,10.68
2018-09-29T18:33:20.324Z,10.63
2018-09-29T18:35:51.445Z,10.58
2018-09-29T18:38:20.583Z,10.51
2018-09-29T18:40:48.165Z,10.43
2018-09-29T18:43:16.318Z,10.36
2018-09-29T18:45:44.301Z,10.28
2018-09-29T18:48:11.837Z,10.21
2018-09-29T18:50:39.349Z,10.10
2018-09-29T18:53:07.246Z,9.97
2018-09-29T18:55:35.851Z,9.89
2018-09-29T18:58:03.425Z,9.84
2018-09-29T19:00:32.797Z,9.79
2018-09-29T19:03:00.620Z,9.74
2018-09-29T19:05:29.380Z,9.67
2018-09-29T19:07:58.347Z,9.61
2018-09-29T19:10:28.706Z,9.56
2018-09-29T19:12:57.099Z,9.51
2018-09-29T19:15:25.008Z,9.46
2018-09-29T19:17:53.158Z,9.44
2018-09-29T19:20:20.678Z,9.39
2018-09-29T19:22:49.240Z,9.33
2018-09-29T19:25:17.408Z,9.27
2018-09-29T19:27:46.480Z,9.20
2018-09-29T19:30:17.301Z,9.15
2018-09-29T19:32:48.529Z,9.11
2018-09-29T19:35:16.302Z,9.08
2018-09-29T19:37:45.712Z,9.03
2018-09-29T19:40:13.598Z,8.97
2018-09-29T19:45:16.929Z,8.84
2018-09-29T19:47:44.470Z,8.78
2018-09-29T19:50:12.303Z,8.73
2018-09-29T19:52:40.823Z,8.68
2018-09-29T19:55:09.948Z,8.63
2018-09-29T19:57:39.625Z,8.60
2018-09-29T20:00:08.659Z,8.57
2018-09-29T20:02:37.858Z,8.55
2018-09-29T20:05:10.423Z,8.53
2018-09-29T20:07:38.243Z,8.52
2018-09-29T20:10:08.367Z,8.48
2018-09-29T20:12:36.629Z,8.43
2018-09-29T20:15:04.430Z,8.36
2018-09-29T20:17:32.371Z,8.29
2018-09-29T20:20:03.664Z,8.19
2018-09-29T20:22:35.454Z,8.11
2018-09-29T20:25:05.243Z,7.99
2018-09-29T20:27:34.740Z,7.87
2018-09-29T20:30:04.282Z,7.79
2018-09-29T20:35:14.691Z,7.68
2018-09-29T20:37:44.473Z,7.68
2018-09-29T20:40:12.015Z,7.67
2018-09-29T20:42:39.547Z,7.63
2018-09-29T20:45:07.101Z,7.59
2018-09-29T20:47:34.662Z,7.55
2018-09-29T20:50:03.687Z,7.55
2018-09-29T20:52:32.205Z,7.55
2018-09-29T20:55:00.767Z,7.53
2018-09-29T20:57:30.517Z,7.50
2018-09-29T20:59:59.298Z,7.48
2018-09-29T21:02:28.492Z,7.44
2018-09-29T21:04:57.063Z,7.40
2018-09-29T21:07:24.847Z,7.39
2018-09-29T21:09:52.964Z,7.43
2018-09-29T21:12:21.914Z,7.46
2018-09-29T21:14:49.555Z,7.46
2018-09-29T21:17:18.315Z,7.43
2018-09-29T21:19:46.344Z,7.40
2018-09-29T21:22:13.921Z,7.37
2018-09-29T21:24:41.476Z,7.32
2018-09-29T21:27:09.521Z,7.29
2018-09-29T21:29:37.108Z,7.25
2018-09-29T21:32:04.652Z,7.21
2018-09-29T21:34:32.682Z,7.17
2018-09-29T21:37:01.354Z,7.13
2018-09-29T21:39:29.977Z,7.09
2018-09-29T21:41:59.330Z,7.03
2018-09-29T21:44:26.890Z,6.98
2018-09-29T21:46:55.363Z,6.94
2018-09-29T21:49:24.395Z,6.88
2018-09-29T21:51:52.657Z,6.83
2018-09-29T21:54:20.205Z,6.79
2018-09-29T21:56:49.882Z,6.73
2018-09-29T21:59:21.336Z,6.68
2018-09-29T22:01:49.699Z,6.63
2018-09-29T22:04:18.803Z,6.61
2018-09-29T22:06:46.364Z,6.57
2018-09-29T22:09:18.722Z,6.51
2018-09-29T22:11:46.744Z,6.45
2018-09-29T22:14:16.051Z,6.43
2018-09-29T22:16:44.511Z,6.41
2018-09-29T22:19:13.977Z,6.38
2018-09-29T22:21:41.544Z,6.38
2018-09-29T22:24:09.181Z,6.36
2018-09-29T22:26:38.551Z,6.34
2018-09-29T22:29:07.323Z,6.30
2018-09-29T22:31:34.948Z,6.28
2018-09-29T22:34:03.840Z,6.23
2018-09-29T22:36:31.385Z,6.20
2018-09-29T22:38:59.565Z,6.20
2018-09-29T22:41:28.118Z,6.21
2018-09-29T22:43:55.707Z,6.22
2018-09-29T22:46:27.847Z,6.22
2018-09-29T22:48:55.736Z,6.23
2018-09-29T22:51:23.321Z,6.23
2018-09-29T22:53:52.737Z,6.23
2018-09-29T22:56:20.786Z,6.23
2018-09-29T22:58:48.383Z,6.23
2018-09-29T23:01:16.000Z,6.21
2018-09-29T23:03:44.043Z,6.21
2018-09-29T23:06:11.628Z,6.18
2018-09-29T23:08:39.227Z,6.16
2018-09-29T23:11:07.125Z,6.12
2018-09-29T23:13:34.707Z,6.08
2018-09-29T23:16:02.932Z,6.02
2018-09-29T23:18:31.007Z,5.94
2018-09-29T23:20:58.616Z,5.88
2018-09-29T23:23:27.223Z,5.83
2018-09-29T23:25:56.336Z,5.80
2018-09-29T23:28:24.484Z,5.77
2018-09-29T23:30:52.095Z,5.74
2018-09-29T23:33:20.024Z,5.70
2018-09-29T23:35:47.681Z,5.68
2018-09-29T23:38:15.906Z,5.65
2018-09-29T23:40:43.885Z,5.61
2018-09-29T23:43:11.488Z,5.57
2018-09-29T23:45:39.094Z,5.51
2018-09-29T23:48:08.749Z,5.47
2018-09-29T23:50:40.479Z,5.45
2018-09-29T23:53:08.317Z,5.42
2018-09-29T23:55:36.421Z,5.43
2018-09-29T23:58:04.837Z,5.44
